createdAt,value
2018-06-25T00:00:12.745Z,15.10
2018-06-25T00:02:39.674Z,15.10
2018-06-25T00:05:06.632Z,15.00
2018-06-25T00:07:33.579Z,15.00
2018-06-25T00:10:00.531Z,14.90
2018-06-25T00:12:27.501Z,14.90
2018-06-25T00:14:54.462Z,14.80
2018-06-25T00:17:21.361Z,14.80
2018-06-25T00:19:48.328Z,14.90
2018-06-25T00:22:15.224Z,14.90
2018-06-25T00:27:09.026Z,14.80
2018-06-25T00:29:35.945Z,14.80
2018-06-25T00:32:02.949Z,14.80
2018-06-25T00:34:29.909Z,14.80
2018-06-25T00:36:56.862Z,14.80
2018-06-25T00:39:23.793Z,14.90
2018-06-25T00:41:50.739Z,14.90
2018-06-25T00:44:17.655Z,14.80
2018-06-25T00:46:44.603Z,14.90
2018-06-25T00:49:11.513Z,14.80
2018-06-25T00:51:38.487Z,14.80
2018-06-25T00:54:05.433Z,14.70
2018-06-25T00:56:32.340Z,14.70
2018-06-25T00:59:04.789Z,14.70
2018-06-25T01:01:32.512Z,14.70
2018-06-25T01:03:59.452Z,14.70
2018-06-25T01:06:26.394Z,14.70
2018-06-25T01:08:53.347Z,14.70
2018-06-25T01:11:20.268Z,14.70
2018-06-25T01:13:47.227Z,14.70
2018-06-25T01:16:14.146Z,14.90
2018-06-25T01:18:41.094Z,14.90
2018-06-25T01:21:08.040Z,14.90
2018-06-25T01:26:01.830Z,14.80
2018-06-25T01:28:28.744Z,14.80
2018-06-25T01:30:55.676Z,14.90
2018-06-25T01:33:22.608Z,14.80
2018-06-25T01:35:49.534Z,14.80
2018-06-25T01:38:16.474Z,14.80
2018-06-25T01:40:43.413Z,14.90
2018-06-25T01:43:10.324Z,14.90
2018-06-25T01:45:37.272Z,14.90
2018-06-25T01:48:04.396Z,14.70
2018-06-25T01:50:31.332Z,14.70
2018-06-25T01:52:58.263Z,14.60
2018-06-25T01:55:25.192Z,14.50
2018-06-25T01:57:52.134Z,14.50
2018-06-25T02:00:19.079Z,14.50
2018-06-25T02:02:46.052Z,14.50
2018-06-25T02:05:12.984Z,14.50
2018-06-25T02:07:39.946Z,14.50
2018-06-25T02:10:07.018Z,14.50
2018-06-25T02:15:00.848Z,14.40
2018-06-25T02:17:27.820Z,14.40
2018-06-25T02:19:54.733Z,14.40
2018-06-25T02:22:21.698Z,14.40
2018-06-25T02:24:48.639Z,14.40
2018-06-25T02:27:15.584Z,14.30
2018-06-25T02:29:42.606Z,14.30
2018-06-25T02:32:09.550Z,14.40
2018-06-25T02:34:36.985Z,14.40
2018-06-25T02:37:04.536Z,14.40
2018-06-25T02:39:31.518Z,14.40
2018-06-25T02:41:58.524Z,14.40
2018-06-25T02:44:25.434Z,14.40
2018-06-25T02:46:52.376Z,14.40
2018-06-25T02:49:19.305Z,14.40
2018-06-25T02:51:46.227Z,14.50
2018-06-25T02:54:13.182Z,14.40
2018-06-25T02:56:40.086Z,14.40
2018-06-25T02:59:07.135Z,14.30
2018-06-25T03:01:33.984Z,14.40
2018-06-25T03:04:00.945Z,14.40
2018-06-25T03:06:27.865Z,14.40
2018-06-25T03:08:55.324Z,14.30
2018-06-25T03:11:22.227Z,14.30
2018-06-25T03:13:49.181Z,14.30
2018-06-25T03:16:16.095Z,14.30
2018-06-25T03:18:43.147Z,14.30
2018-06-25T03:21:10.046Z,14.40
2018-06-25T03:23:37.039Z,14.40
2018-06-25T03:26:03.996Z,14.40
2018-06-25T03:28:30.932Z,14.40
2018-06-25T03:30:57.895Z,14.50
2018-06-25T03:33:24.854Z,14.50
2018-06-25T03:35:51.809Z,14.50
2018-06-25T03:38:18.813Z,14.50
2018-06-25T03:40:45.924Z,14.50
2018-06-25T03:43:12.895Z,14.50
2018-06-25T03:45:39.832Z,14.60
2018-06-25T03:50:40.648Z,14.60
2018-06-25T03:53:07.596Z,14.50
2018-06-25T03:55:34.582Z,14.50
2018-06-25T03:58:01.517Z,14.50
2018-06-25T04:00:28.483Z,14.50
2018-06-25T04:02:55.448Z,14.50
2018-06-25T04:05:22.443Z,14.50
2018-06-25T04:07:49.399Z,14.50
2018-06-25T04:10:16.364Z,14.40
2018-06-25T04:12:43.276Z,14.50
2018-06-25T04:15:10.264Z,14.50
2018-06-25T04:17:37.198Z,14.50
2018-06-25T04:20:04.172Z,14.70
2018-06-25T04:22:31.223Z,14.70
2018-06-25T04:24:58.166Z,14.70
2018-06-25T04:27:25.077Z,14.70
2018-06-25T04:29:52.027Z,14.80
2018-06-25T04:32:18.944Z,14.80
2018-06-25T04:34:45.871Z,14.70
2018-06-25T04:37:12.839Z,14.70
2018-06-25T04:39:39.778Z,14.70
2018-06-25T04:42:06.723Z,14.70
2018-06-25T04:44:33.664Z,14.70
2018-06-25T04:47:00.582Z,14.70
2018-06-25T04:49:27.556Z,14.70
2018-06-25T04:51:54.525Z,14.80
2018-06-25T04:54:21.423Z,14.80
2018-06-25T04:56:48.415Z,14.80
2018-06-25T04:59:15.312Z,14.70
2018-06-25T05:01:42.296Z,14.70
2018-06-25T05:04:09.249Z,14.70
2018-06-25T05:06:36.195Z,14.70
2018-06-25T05:09:05.192Z,14.70
2018-06-25T05:11:32.165Z,14.70
2018-06-25T05:13:59.071Z,14.70
2018-06-25T05:16:26.034Z,14.80
2018-06-25T05:18:52.968Z,14.80
2018-06-25T05:21:19.905Z,14.80
2018-06-25T05:23:46.877Z,14.80
2018-06-25T05:26:13.795Z,14.80
2018-06-25T05:28:40.740Z,14.90
2018-06-25T05:31:07.664Z,14.90
2018-06-25T05:33:34.626Z,14.90
2018-06-25T05:36:01.556Z,14.90
2018-06-25T05:38:28.586Z,14.90
2018-06-25T05:40:55.562Z,14.90
2018-06-25T05:43:22.500Z,14.90
2018-06-25T05:45:49.460Z,14.90
2018-06-25T05:48:16.472Z,14.80
2018-06-25T05:50:43.413Z,14.90
2018-06-25T05:53:10.402Z,14.90
2018-06-25T05:55:37.413Z,14.90
2018-06-25T05:58:04.402Z,15.00
2018-06-25T06:00:31.352Z,15.00
2018-06-25T06:02:58.281Z,15.10
2018-06-25T06:05:25.237Z,15.10
2018-06-25T06:07:52.162Z,15.10
2018-06-25T06:10:19.128Z,15.10
2018-06-25T06:12:46.024Z,15.10
2018-06-25T06:15:13.013Z,15.10
2018-06-25T06:17:39.954Z,15.10
2018-06-25T06:20:06.954Z,15.20
2018-06-25T06:22:33.898Z,15.30
2018-06-25T06:25:00.839Z,15.40
2018-06-25T06:27:27.746Z,15.50
2018-06-25T06:29:54.695Z,15.50
2018-06-25T06:34:48.612Z,15.40
2018-06-25T06:37:15.496Z,15.50
2018-06-25T06:39:42.436Z,15.50
2018-06-25T06:42:09.347Z,15.50
2018-06-25T06:44:36.316Z,15.50
2018-06-25T06:47:03.242Z,15.50
2018-06-25T06:49:30.188Z,15.60
2018-06-25T06:51:57.401Z,15.70
2018-06-25T06:54:24.524Z,15.90
2018-06-25T06:56:51.448Z,15.90
2018-06-25T06:59:18.398Z,15.90
2018-06-25T07:01:45.323Z,15.90
2018-06-25T07:04:12.241Z,15.90
2018-06-25T07:09:13.503Z,16.00
2018-06-25T07:11:40.876Z,16.00
2018-06-25T07:14:08.411Z,16.00
2018-06-25T07:16:35.462Z,16.10
2018-06-25T07:21:29.204Z,16.20
2018-06-25T07:23:56.136Z,16.10
2018-06-25T07:26:24.484Z,16.00
2018-06-25T07:28:51.818Z,16.00
2018-06-25T07:31:18.770Z,16.00
2018-06-25T07:33:46.005Z,16.00
2018-06-25T07:36:12.982Z,16.00
2018-06-25T07:38:39.897Z,16.00
2018-06-25T07:41:06.839Z,16.00
2018-06-25T07:43:33.765Z,16.00
2018-06-25T07:46:00.733Z,16.10
2018-06-25T07:50:54.531Z,16.20
2018-06-25T07:53:21.546Z,16.20
2018-06-25T07:55:48.416Z,16.20
2018-06-25T07:58:15.320Z,16.20
2018-06-25T08:00:42.270Z,16.20
2018-06-25T08:03:09.220Z,16.20
2018-06-25T08:05:36.284Z,16.30
2018-06-25T08:15:23.734Z,16.70
2018-06-25T08:17:50.700Z,16.90
2018-06-25T08:20:17.635Z,17.30
2018-06-25T08:22:44.829Z,17.90
2018-06-25T08:25:11.874Z,18.50
2018-06-25T08:27:38.819Z,18.80
2018-06-25T08:30:05.735Z,19.10
2018-06-25T08:32:32.703Z,19.30
2018-06-25T08:34:59.599Z,19.40
2018-06-25T08:37:26.682Z,19.50
2018-06-25T08:39:53.653Z,19.70
2018-06-25T08:42:20.633Z,19.80
2018-06-25T08:44:47.523Z,19.50
2018-06-25T08:47:14.711Z,19.50
2018-06-25T08:49:41.587Z,19.60
2018-06-25T08:52:08.567Z,19.70
2018-06-25T08:54:35.512Z,19.80
2018-06-25T08:57:02.562Z,19.80
2018-06-25T08:59:29.491Z,19.90
2018-06-25T09:01:56.459Z,19.80
2018-06-25T09:04:23.427Z,19.80
2018-06-25T09:06:50.364Z,19.90
2018-06-25T09:09:17.267Z,20.10
2018-06-25T09:11:44.191Z,20.00
2018-06-25T09:14:11.112Z,20.00
2018-06-25T09:16:38.036Z,19.80
2018-06-25T09:19:05.252Z,19.50
2018-06-25T09:21:32.180Z,19.30
2018-06-25T09:23:59.154Z,19.10
2018-06-25T09:26:26.102Z,18.80
2018-06-25T09:28:53.041Z,18.80
2018-06-25T09:31:19.984Z,18.70
2018-06-25T09:33:46.908Z,18.80
2018-06-25T09:38:40.921Z,19.60
2018-06-25T09:41:07.851Z,19.80
2018-06-25T09:43:34.805Z,19.80
2018-06-25T09:46:01.840Z,19.50
2018-06-25T09:48:28.768Z,19.30
2018-06-25T09:50:55.953Z,19.00
2018-06-25T09:53:22.865Z,18.80
2018-06-25T09:55:49.820Z,18.70
2018-06-25T09:58:16.715Z,18.70
2018-06-25T10:00:49.379Z,18.90
2018-06-25T10:03:16.283Z,19.10
2018-06-25T10:05:43.268Z,19.20
2018-06-25T10:08:10.173Z,19.20
2018-06-25T10:10:37.173Z,19.30
2018-06-25T10:13:04.057Z,19.40
2018-06-25T10:15:31.063Z,19.30
2018-06-25T10:17:57.973Z,19.40
2018-06-25T10:20:24.916Z,19.50
2018-06-25T10:22:51.812Z,19.50
2018-06-25T10:25:18.836Z,19.50
2018-06-25T10:27:45.772Z,19.40
2018-06-25T10:30:12.693Z,19.50
2018-06-25T10:32:39.659Z,19.60
2018-06-25T10:35:06.608Z,19.80
2018-06-25T10:37:33.540Z,20.10
2018-06-25T10:40:00.500Z,20.50
2018-06-25T10:42:27.501Z,20.60
2018-06-25T10:44:54.392Z,20.90
2018-06-25T10:47:21.347Z,21.30
2018-06-25T10:49:48.325Z,21.50
2018-06-25T10:52:15.301Z,21.70
2018-06-25T10:54:42.230Z,22.00
2018-06-25T10:57:09.198Z,21.90
2018-06-25T10:59:36.245Z,21.50
2018-06-25T11:02:03.171Z,21.40
2018-06-25T11:04:30.060Z,21.30
2018-06-25T11:06:57.046Z,21.30
2018-06-25T11:09:23.948Z,21.10
2018-06-25T11:11:50.887Z,21.00
2018-06-25T11:14:17.913Z,20.80
2018-06-25T11:16:44.872Z,20.80
2018-06-25T11:19:11.837Z,21.10
2018-06-25T11:21:38.905Z,21.30
2018-06-25T11:24:05.823Z,22.30
2018-06-25T11:26:32.937Z,23.20
2018-06-25T11:28:59.872Z,23.60
2018-06-25T11:31:26.840Z,23.80
2018-06-25T11:33:53.761Z,23.60
2018-06-25T11:36:20.785Z,23.30
2018-06-25T11:38:47.709Z,22.80
2018-06-25T11:41:14.684Z,22.40
2018-06-25T11:43:41.849Z,21.90
2018-06-25T11:46:08.797Z,22.00
2018-06-25T11:48:35.703Z,22.20
2018-06-25T11:51:02.650Z,22.10
2018-06-25T11:53:29.621Z,22.00
2018-06-25T11:55:56.822Z,21.80
2018-06-25T11:58:23.817Z,21.80
2018-06-25T12:00:50.708Z,22.30
2018-06-25T12:03:17.951Z,23.00
2018-06-25T12:05:44.596Z,24.10
2018-06-25T12:08:12.340Z,25.30
2018-06-25T12:10:39.319Z,25.70
2018-06-25T12:13:06.320Z,25.40
2018-06-25T12:15:33.244Z,24.70
2018-06-25T12:18:00.160Z,24.20
2018-06-25T12:20:27.096Z,24.20
2018-06-25T12:22:54.033Z,24.30
2018-06-25T12:25:20.948Z,24.70
2018-06-25T12:27:47.989Z,25.10
2018-06-25T12:30:14.998Z,25.20
2018-06-25T12:32:41.956Z,25.20
2018-06-25T12:35:09.094Z,25.90
2018-06-25T12:37:36.015Z,26.90
2018-06-25T12:40:03.073Z,27.40
2018-06-25T12:42:30.026Z,27.80
2018-06-25T12:44:56.959Z,28.10
2018-06-25T12:47:23.877Z,28.50
2018-06-25T12:49:50.800Z,28.50
2018-06-25T12:52:17.777Z,28.20
2018-06-25T12:54:44.736Z,27.50
2018-06-25T12:57:11.763Z,27.00
2018-06-25T13:02:05.516Z,26.20
2018-06-25T13:04:32.437Z,25.40
2018-06-25T13:06:59.814Z,25.00
2018-06-25T13:09:26.708Z,25.30
2018-06-25T13:11:53.700Z,26.20
2018-06-25T13:14:20.597Z,26.50
2018-06-25T13:16:47.547Z,26.60
